ESST/TYF METAR and TAF weather

Enter ICAO airport designator
Station Type Date Time Source
ESST METAR 2022/01/26 14:50 UTC NOAA

ESST 261450Z AUTO VRB03KT 9999 NCD 05/M03 Q1005


Station Type Date Time Source
ESST Decoded METAR 2022/01/26 14:50 UTC NOAA

Station name not available
Jan 26, 2022 - 09:50 AM EST / 2022.01.26 1450 UTC
Wind: Variable at 3 MPH (3 KT):0
Visibility: greater than 7 mile(s):0
Temperature: 41 F (5 C)
Dew Point: 26 F (-3 C)
Relative Humidity: 56%
Pressure (altimeter): 29.68 in. Hg (1005 hPa)
ob: ESST 261450Z AUTO VRB03KT 9999 NCD 05/M03 Q1005
cycle: 15

Station Type Date Time Source
ESST TAF UTC NOAA

Error!

Example: see airport list